Time,TemperatureF,DewpointF,PressureIn,WindDirection,WindDirectionDegrees,WindSpeedMPH,WindSpeedGustMPH,Humidity,HourlyPrecipIn,Conditions,Clouds,dailyrainin,SoftwareType,DateUTC
2013-07-28 00:02:00,56.0,48.0,-100.00,North,8,3.0,6.0,74,-99.99,,,-99.99,,2013-07-28 07:02:00,
2013-07-28 00:22:00,56.0,51.0,-100.00,NE,35,2.0,5.0,82,-99.99,,,-99.99,,2013-07-28 07:22:00,
2013-07-28 00:32:00,56.0,51.0,-100.00,NE,35,2.0,5.0,82,-99.99,,,-99.99,,2013-07-28 07:32:00,
2013-07-28 00:42:00,57.0,49.0,-100.00,East,88,2.0,4.0,75,-99.99,,,-99.99,,2013-07-28 07:42:00,
2013-07-28 00:53:00,57.0,49.0,-100.00,East,88,2.0,4.0,75,-99.99,,,-99.99,,2013-07-28 07:53:00,
2013-07-28 01:02:00,56.0,49.0,-100.00,East,88,3.0,6.0,76,-99.99,,,-99.99,,2013-07-28 08:02:00,
2013-07-28 01:12:00,56.0,49.0,-100.00,East,88,3.0,6.0,76,-99.99,,,-99.99,,2013-07-28 08:12:00,
2013-07-28 01:22:00,54.0,48.0,-100.00,East,86,2.0,7.0,79,-99.99,,,-99.99,,2013-07-28 08:22:00,
2013-07-28 01:33:00,54.0,48.0,-100.00,East,86,2.0,7.0,79,-99.99,,,-99.99,,2013-07-28 08:33:00,
2013-07-28 01:42:00,55.0,49.0,-100.00,SE,128,2.0,5.0,79,-99.99,,,-99.99,,2013-07-28 08:42:00,
2013-07-28 01:53:00,55.0,49.0,-100.00,SE,128,2.0,5.0,79,-99.99,,,-99.99,,2013-07-28 08:53:00,
2013-07-28 02:02:00,55.0,49.0,-100.00,SE,131,2.0,4.0,79,-99.99,,,-99.99,,2013-07-28 09:02:00,
2013-07-28 02:12:00,55.0,49.0,-100.00,SE,131,2.0,4.0,79,-99.99,,,-99.99,,2013-07-28 09:12:00,
2013-07-28 02:22:00,54.0,47.0,-100.00,NNW,347,1.0,4.0,76,-99.99,,,-99.99,,2013-07-28 09:22:00,
2013-07-28 02:32:00,54.0,47.0,-100.00,NNW,347,1.0,4.0,76,-99.99,,,-99.99,,2013-07-28 09:32:00,
2013-07-28 02:43:00,53.0,46.0,-100.00,North,359,2.0,4.0,78,-99.99,,,-99.99,,2013-07-28 09:43:00,
2013-07-28 02:53:00,53.0,46.0,-100.00,North,359,2.0,4.0,78,-99.99,,,-99.99,,2013-07-28 09:53:00,
2013-07-28 03:02:00,53.0,46.0,-100.00,North,359,2.0,4.0,78,-99.99,,,-99.99,,2013-07-28 10:02:00,
2013-07-28 03:12:00,53.0,46.0,-100.00,North,359,2.0,4.0,78,-99.99,,,-99.99,,2013-07-28 10:12:00,
2013-07-28 03:42:00,55.0,47.0,-100.00,North,1,3.0,7.0,73,-99.99,,,-99.99,,2013-07-28 10:42:00,
2013-07-28 03:53:00,55.0,47.0,-100.00,North,1,3.0,7.0,73,-99.99,,,-99.99,,2013-07-28 10:53:00,
2013-07-28 04:12:00,53.0,45.0,-100.00,North,360,1.0,4.0,76,-99.99,,,-99.99,,2013-07-28 11:12:00,
2013-07-28 04:22:00,53.0,45.0,-100.00,North,360,1.0,4.0,76,-99.99,,,-99.99,,2013-07-28 11:22:00,
2013-07-28 04:33:00,53.0,45.0,-100.00,North,360,1.0,4.0,76,-99.99,,,-99.99,,2013-07-28 11:33:00,
2013-07-28 05:02:00,53.0,47.0,-100.00,SSE,157,4.0,7.0,78,-99.99,,,-99.99,,2013-07-28 12:02:00,
2013-07-28 05:12:00,53.0,47.0,-100.00,SSE,157,4.0,7.0,78,-99.99,,,-99.99,,2013-07-28 12:12:00,
2013-07-28 05:22:00,53.0,47.0,-100.00,SSE,157,4.0,7.0,78,-99.99,,,-99.99,,2013-07-28 12:22:00,
2013-07-28 05:33:00,53.0,47.0,-100.00,SSE,157,4.0,7.0,78,-99.99,,,-99.99,,2013-07-28 12:33:00,
2013-07-28 05:43:00,53.0,46.0,-100.00,East,86,2.0,4.0,79,-99.99,,,-99.99,,2013-07-28 12:43:00,
2013-07-28 05:53:00,53.0,46.0,-100.00,East,86,2.0,4.0,79,-99.99,,,-99.99,,2013-07-28 12:53:00,
2013-07-28 06:02:00,53.0,46.0,-100.00,East,86,2.0,4.0,79,-99.99,,,-99.99,,2013-07-28 13:02:00,
2013-07-28 06:12:00,53.0,46.0,-100.00,East,86,2.0,4.0,79,-99.99,,,-99.99,,2013-07-28 13:12:00,
2013-07-28 06:43:00,51.0,45.0,-100.00,North,1,0.0,2.0,78,-99.99,,,-99.99,,2013-07-28 13:43:00,
2013-07-28 06:53:00,51.0,45.0,-100.00,North,1,0.0,2.0,78,-99.99,,,-99.99,,2013-07-28 13:53:00,
2013-07-28 07:02:00,51.0,45.0,-100.00,North,1,0.0,2.0,78,-99.99,,,-99.99,,2013-07-28 14:02:00,
2013-07-28 07:12:00,51.0,45.0,-100.00,North,1,0.0,2.0,78,-99.99,,,-99.99,,2013-07-28 14:12:00,
2013-07-28 07:41:00,50.0,43.0,-100.00,NNW,337,1.0,4.0,78,-99.99,,,-99.99,,2013-07-28 14:41:00,
2013-07-28 08:22:00,50.0,43.0,-100.00,NNW,337,1.0,4.0,78,-99.99,,,-99.99,,2013-07-28 15:22:00,
2013-07-28 08:32:00,50.0,43.0,-100.00,NNW,337,1.0,4.0,78,-99.99,,,-99.99,,2013-07-28 15:32:00,
2013-07-28 09:02:00,55.0,46.0,-100.00,NNW,344,1.0,4.0,71,-99.99,,,-99.99,,2013-07-28 16:02:00,
2013-07-28 09:22:00,62.0,45.0,-100.00,WNW,302,0.0,1.0,55,-99.99,,,-99.99,,2013-07-28 16:22:00,
2013-07-28 09:33:00,63.0,45.0,-100.00,West,278,2.0,5.0,52,-99.99,,,-99.99,,2013-07-28 16:33:00,
2013-07-28 09:43:00,63.0,45.0,-100.00,West,278,2.0,5.0,52,-99.99,,,-99.99,,2013-07-28 16:43:00,
2013-07-28 09:52:00,63.0,45.0,-100.00,West,278,2.0,5.0,52,-99.99,,,-99.99,,2013-07-28 16:52:00,
2013-07-28 10:22:00,65.0,45.0,-100.00,West,277,5.0,9.0,48,-99.99,,,-99.99,,2013-07-28 17:22:00,
2013-07-28 11:02:00,65.0,44.0,-100.00,WSW,246,5.0,10.0,46,-99.99,,,-99.99,,2013-07-28 18:02:00,
2013-07-28 11:12:00,66.0,44.0,-100.00,West,271,6.0,10.0,45,-99.99,,,-99.99,,2013-07-28 18:12:00,
2013-07-28 11:22:00,66.0,44.0,-100.00,West,271,6.0,10.0,45,-99.99,,,-99.99,,2013-07-28 18:22:00,
2013-07-28 11:32:00,66.0,44.0,-100.00,West,271,6.0,10.0,45,-99.99,,,-99.99,,2013-07-28 18:32:00,
2013-07-28 11:42:00,66.0,44.0,-100.00,West,271,6.0,10.0,45,-99.99,,,-99.99,,2013-07-28 18:42:00,
2013-07-28 11:52:00,69.0,45.0,-100.00,NW,309,5.0,11.0,43,-99.99,,,-99.99,,2013-07-28 18:52:00,
2013-07-28 12:02:00,69.0,45.0,-100.00,NW,309,5.0,11.0,43,-99.99,,,-99.99,,2013-07-28 19:02:00,
2013-07-28 12:12:00,69.0,45.0,-100.00,NW,309,5.0,11.0,43,-99.99,,,-99.99,,2013-07-28 19:12:00,
2013-07-28 12:22:00,69.0,45.0,-100.00,NW,309,5.0,11.0,43,-99.99,,,-99.99,,2013-07-28 19:22:00,
2013-07-28 12:52:00,70.0,41.0,-100.00,WNW,282,4.0,10.0,35,-99.99,,,-99.99,,2013-07-28 19:52:00,
2013-07-28 13:02:00,70.0,41.0,-100.00,WNW,282,4.0,10.0,35,-99.99,,,-99.99,,2013-07-28 20:02:00,
2013-07-28 13:12:00,71.0,39.0,-100.00,WNW,302,4.0,10.0,32,-99.99,,,-99.99,,2013-07-28 20:12:00,
2013-07-28 13:22:00,71.0,39.0,-100.00,WNW,302,4.0,10.0,32,-99.99,,,-99.99,,2013-07-28 20:22:00,
2013-07-28 13:33:00,71.0,39.0,-100.00,WNW,302,4.0,10.0,32,-99.99,,,-99.99,,2013-07-28 20:33:00,
2013-07-28 13:43:00,71.0,39.0,-100.00,WNW,302,4.0,10.0,32,-99.99,,,-99.99,,2013-07-28 20:43:00,
2013-07-28 13:53:00,73.0,36.0,-100.00,WSW,258,4.0,12.0,26,-99.99,,,-99.99,,2013-07-28 20:53:00,
2013-07-28 14:02:00,73.0,36.0,-100.00,WSW,258,4.0,12.0,26,-99.99,,,-99.99,,2013-07-28 21:02:00,
2013-07-28 14:22:00,74.0,36.0,-100.00,SW,222,7.0,14.0,25,-99.99,,,-99.99,,2013-07-28 21:22:00,
2013-07-28 14:33:00,75.0,37.0,-100.00,SSW,196,7.0,15.0,25,-99.99,,,-99.99,,2013-07-28 21:33:00,
2013-07-28 14:43:00,75.0,37.0,-100.00,SSW,196,7.0,15.0,25,-99.99,,,-99.99,,2013-07-28 21:43:00,
2013-07-28 14:52:00,75.0,37.0,-100.00,SSW,196,7.0,15.0,25,-99.99,,,-99.99,,2013-07-28 21:52:00,
2013-07-28 15:01:00,75.0,37.0,-100.00,SSW,196,7.0,15.0,25,-99.99,,,-99.99,,2013-07-28 22:01:00,
2013-07-28 15:22:00,75.0,35.0,-100.00,WSW,258,5.0,14.0,23,-99.99,,,-99.99,,2013-07-28 22:22:00,
2013-07-28 15:32:00,75.0,35.0,-100.00,WSW,258,5.0,14.0,23,-99.99,,,-99.99,,2013-07-28 22:32:00,
2013-07-28 15:43:00,74.0,35.0,-100.00,West,274,7.0,14.0,23,-99.99,,,-99.99,,2013-07-28 22:43:00,
2013-07-28 16:03:00,70.0,36.0,-100.00,NNW,329,13.0,24.0,29,-99.99,,,-99.99,,2013-07-28 23:03:00,
2013-07-28 16:12:00,70.0,36.0,-100.00,NNW,329,13.0,24.0,29,-99.99,,,-99.99,,2013-07-28 23:12:00,
2013-07-28 16:22:00,70.0,36.0,-100.00,NNW,329,13.0,24.0,29,-99.99,,,-99.99,,2013-07-28 23:22:00,
2013-07-28 16:53:00,69.0,36.0,-100.00,SSW,203,5.0,15.0,30,-99.99,,,-99.99,,2013-07-28 23:53:00,
2013-07-28 17:02:00,69.0,36.0,-100.00,SSW,203,5.0,15.0,30,-99.99,,,-99.99,,2013-07-29 00:02:00,
2013-07-28 17:12:00,69.0,36.0,-100.00,South,186,3.0,9.0,30,-99.99,,,-99.99,,2013-07-29 00:12:00,
2013-07-28 17:22:00,70.0,35.0,-100.00,South,186,3.0,9.0,27,-99.99,,,-99.99,,2013-07-29 00:22:00,
2013-07-28 17:32:00,70.0,35.0,-100.00,South,186,3.0,9.0,27,-99.99,,,-99.99,,2013-07-29 00:32:00,
2013-07-28 17:43:00,70.0,35.0,-100.00,South,186,3.0,9.0,27,-99.99,,,-99.99,,2013-07-29 00:43:00,
2013-07-28 18:02:00,71.0,31.0,-100.00,WSW,258,15.0,22.0,23,-99.99,,,-99.99,,2013-07-29 01:02:00,
2013-07-28 18:24:00,69.0,34.0,-100.00,West,270,15.0,30.0,28,-99.99,,,-99.99,,2013-07-29 01:24:00,
2013-07-28 18:42:00,68.0,35.0,-100.00,West,267,10.0,17.0,29,-99.99,,,-99.99,,2013-07-29 01:42:00,
2013-07-28 18:59:00,70.0,32.0,-100.00,West,272,3.0,7.0,24,-99.99,,,-99.99,,2013-07-29 01:59:00,
2013-07-28 19:12:00,70.0,32.0,-100.00,West,272,3.0,7.0,24,-99.99,,,-99.99,,2013-07-29 02:12:00,
2013-07-28 19:24:00,70.0,32.0,-100.00,West,272,3.0,7.0,24,-99.99,,,-99.99,,2013-07-29 02:24:00,
2013-07-28 19:52:00,70.0,32.0,-100.00,WNW,302,5.0,8.0,23,-99.99,,,-99.99,,2013-07-29 02:52:00,
2013-07-28 20:35:00,70.0,32.0,-100.00,WNW,302,5.0,8.0,23,-99.99,,,-99.99,,2013-07-29 03:35:00,
2013-07-28 20:53:00,65.0,34.0,-100.00,North,349,2.0,4.0,32,-99.99,,,-99.99,,2013-07-29 03:53:00,
2013-07-28 21:02:00,66.0,34.0,-100.00,North,354,4.0,6.0,30,-99.99,,,-99.99,,2013-07-29 04:02:00,
2013-07-28 21:12:00,66.0,34.0,-100.00,North,354,4.0,6.0,30,-99.99,,,-99.99,,2013-07-29 04:12:00,
2013-07-28 21:32:00,65.0,34.0,-100.00,North,349,2.0,4.0,32,-99.99,,,-99.99,,2013-07-29 04:32:00,
2013-07-28 21:43:00,65.0,34.0,-100.00,North,349,2.0,4.0,32,-99.99,,,-99.99,,2013-07-29 04:43:00,
2013-07-28 22:02:00,63.0,40.0,-100.00,WSW,237,13.0,22.0,43,-99.99,,,-99.99,,2013-07-29 05:02:00,
2013-07-28 22:12:00,63.0,40.0,-100.00,WSW,237,13.0,22.0,43,-99.99,,,-99.99,,2013-07-29 05:12:00,
2013-07-28 22:22:00,63.0,40.0,-100.00,WSW,237,13.0,22.0,43,-99.99,,,-99.99,,2013-07-29 05:22:00,
2013-07-28 22:32:00,63.0,40.0,-100.00,WSW,237,13.0,22.0,43,-99.99,,,-99.99,,2013-07-29 05:32:00,
2013-07-28 22:43:00,62.0,40.0,-100.00,SW,226,10.0,16.0,45,-99.99,,,-99.99,,2013-07-29 05:43:00,
2013-07-28 22:53:00,62.0,40.0,-100.00,SW,227,11.0,20.0,45,-99.99,,,-99.99,,2013-07-29 05:53:00,
2013-07-28 23:02:00,61.0,41.0,-100.00,SW,227,11.0,20.0,48,-99.99,,,-99.99,,2013-07-29 06:02:00,
2013-07-28 23:12:00,61.0,41.0,-100.00,SW,227,11.0,20.0,48,-99.99,,,-99.99,,2013-07-29 06:12:00,
2013-07-28 23:32:00,59.0,43.0,-100.00,SW,230,13.0,22.0,54,-99.99,,,-99.99,,2013-07-29 06:32:00,
2013-07-28 23:43:00,59.0,43.0,-100.00,SW,230,13.0,22.0,54,-99.99,,,-99.99,,2013-07-29 06:43:00,
2013-07-28 23:52:00,59.0,43.0,-100.00,SW,230,13.0,22.0,54,-99.99,,,-99.99,,2013-07-29 06:52:00,